Time;durP1;ratioP1;P1;durP2;ratioP2;P2;SDS_P1;SDS_P2;PMS_P1;PMS_P2;Temp;Humidity;BMP_temperature;BMP_pressure;BME280_temperature;BME280_humidity;BME280_pressure;Samples;Min_cycle;Max_cycle;Signal;HPM_P1;HPM_P2
2022/04/23 00:01:10;;;;;;;12.05;10.73;;;;;;;9.49;100.00;99336.00;5029382;28;20588;-65
2022/04/23 00:03:35;;;;;;;13.05;11.40;;;;;;;9.39;100.00;99319.16;5030620;28;20724;-65
2022/04/23 00:06:02;;;;;;;15.05;11.38;;;;;;;9.40;100.00;99331.31;5028476;28;20028;-65
2022/04/23 00:08:27;;;;;;;14.25;12.15;;;;;;;9.33;100.00;99312.50;5031028;28;20045;-65
2022/04/23 00:10:53;;;;;;;12.50;11.13;;;;;;;9.47;100.00;99340.50;5011199;28;20363;-65
2022/04/23 00:13:19;;;;;;;12.60;10.98;;;;;;;9.43;100.00;99344.25;5029146;28;20028;-65
2022/04/23 00:15:44;;;;;;;14.32;11.15;;;;;;;9.32;100.00;99325.72;5030114;28;20089;-65
2022/04/23 00:18:10;;;;;;;16.92;11.10;;;;;;;9.35;100.00;99336.03;5012841;28;20067;-65
2022/04/23 00:20:37;;;;;;;14.27;12.57;;;;;;;9.31;100.00;99326.66;5029517;28;20028;-65
2022/04/23 00:23:05;;;;;;;15.30;11.90;;;;;;;9.28;100.00;99327.69;5011240;28;20025;-65
2022/04/23 00:25:31;;;;;;;13.30;11.90;;;;;;;9.27;100.00;99331.25;5011385;28;20237;-65
2022/04/23 00:27:56;;;;;;;14.35;12.27;;;;;;;9.20;100.00;99316.84;5011503;28;20850;-65
2022/04/23 00:30:21;;;;;;;14.90;12.80;;;;;;;9.20;100.00;99325.53;5030077;28;20025;-65
2022/04/23 00:32:47;;;;;;;14.27;12.88;;;;;;;9.24;100.00;99332.28;5029342;28;20033;-65
2022/04/23 00:35:14;;;;;;;15.90;12.45;;;;;;;9.19;100.00;99323.84;5030432;28;20769;-66
2022/04/23 00:37:39;;;;;;;15.30;13.70;;;;;;;9.09;100.00;99317.50;5012618;28;20047;-66
2022/04/23 00:40:07;;;;;;;14.38;12.32;;;;;;;9.14;100.00;99331.16;5030585;28;20131;-66
2022/04/23 00:42:44;;;;;;;19.20;13.57;;;;;;;9.06;100.00;99322.94;5032754;28;20040;-66
2022/04/23 00:45:10;;;;;;;16.98;13.88;;;;;;;9.04;100.00;99323.97;5031377;28;20032;-66
2022/04/23 00:47:35;;;;;;;14.43;12.85;;;;;;;8.92;100.00;99314.25;5033205;28;20032;-66
2022/04/23 00:50:01;;;;;;;18.38;13.73;;;;;;;8.96;100.00;99316.56;5033259;28;20907;-66
2022/04/23 00:52:27;;;;;;;15.48;13.82;;;;;;;8.98;100.00;99319.94;5035599;28;20133;-66
2022/04/23 00:54:52;;;;;;;14.95;13.38;;;;;;;8.98;100.00;99324.34;5038402;28;20767;-66
2022/04/23 00:57:18;;;;;;;17.17;14.40;;;;;;;8.94;100.00;99323.69;5035142;28;20048;-66
2022/04/23 00:59:44;;;;;;;17.33;14.45;;;;;;;8.96;100.00;99326.19;5037069;28;20036;-65
2022/04/23 01:02:09;;;;;;;18.80;14.93;;;;;;;8.94;100.00;99322.84;5035022;28;20803;-66
2022/04/23 01:04:34;;;;;;;16.77;13.68;;;;;;;8.79;100.00;99301.03;5036044;28;20028;-65
2022/04/23 01:07:00;;;;;;;16.42;13.93;;;;;;;8.89;100.00;99325.72;5037062;28;20024;-65
2022/04/23 01:09:25;;;;;;;19.23;15.60;;;;;;;8.86;100.00;99311.97;5041575;28;20033;-64
2022/04/23 01:11:51;;;;;;;19.63;15.38;;;;;;;8.77;100.00;99305.53;5038677;28;20029;-64
2022/04/23 01:14:18;;;;;;;18.20;15.73;;;;;;;8.72;100.00;99297.94;5038109;28;20901;-65
2022/04/23 01:16:43;;;;;;;17.08;14.82;;;;;;;8.79;100.00;99306.25;5039560;28;20897;-65
2022/04/23 01:19:08;;;;;;;22.42;15.25;;;;;;;8.79;100.00;99298.41;5045063;28;20058;-65
2022/04/23 01:21:34;;;;;;;21.67;16.33;;;;;;;8.81;100.00;99301.78;5046396;28;20025;-65
2022/04/23 01:23:59;;;;;;;21.33;15.85;;;;;;;8.79;100.00;99305.44;5040786;28;20060;-66
2022/04/23 01:26:26;;;;;;;19.83;15.95;;;;;;;8.88;100.00;99313.59;5035412;28;20090;-65
2022/04/23 01:28:52;;;;;;;16.10;14.27;;;;;;;8.57;100.00;99271.84;5037462;28;20028;-65
2022/04/23 01:31:17;;;;;;;18.50;14.63;;;;;;;8.74;100.00;99297.84;5038783;28;20394;-65
2022/04/23 01:33:43;;;;;;;21.77;15.85;;;;;;;8.83;100.00;99315.63;5034875;28;20038;-66
2022/04/23 01:36:08;;;;;;;16.95;15.15;;;;;;;8.72;100.00;99297.09;5018647;28;20759;-66
2022/04/23 01:38:34;;;;;;;20.05;16.58;;;;;;;8.70;100.00;99304.22;5053976;28;20954;-65
2022/04/23 01:40:59;;;;;;;19.83;15.65;;;;;;;8.69;100.00;99315.59;5056609;28;20085;-65
2022/04/23 01:43:24;;;;;;;18.40;15.32;;;;;;;8.61;100.00;99299.53;5057780;28;20973;-65
2022/04/23 01:45:50;;;;;;;20.33;15.55;;;;;;;8.65;100.00;99312.31;5055114;28;20088;-65
2022/04/23 01:48:15;;;;;;;21.20;15.88;;;;;;;8.63;100.00;99318.59;5059460;28;20028;-65
2022/04/23 01:50:41;;;;;;;18.88;16.05;;;;;;;8.55;100.00;99310.38;5060600;28;20812;-67
2022/04/23 01:53:06;;;;;;;19.08;16.00;;;;;;;8.56;100.00;99325.13;5057232;28;20028;-66
2022/04/23 01:55:31;;;;;;;26.02;15.88;;;;;;;8.46;100.00;99310.91;5058174;28;20909;-66
2022/04/23 01:57:57;;;;;;;18.45;15.65;;;;;;;8.48;100.00;99325.56;5056402;28;20070;-66
2022/04/23 02:00:22;;;;;;;22.38;16.75;;;;;;;8.41;100.00;99312.97;5037031;28;20770;-66
2022/04/23 02:02:48;;;;;;;21.15;16.95;;;;;;;8.40;100.00;99321.72;5038688;28;20024;-66
2022/04/23 02:05:13;;;;;;;22.08;17.80;;;;;;;8.37;100.00;99327.16;5036861;28;20879;-66
2022/04/23 02:07:40;;;;;;;24.08;18.17;;;;;;;8.29;100.00;99313.66;5057611;28;20095;-66
2022/04/23 02:10:07;;;;;;;20.10;17.85;;;;;;;8.35;100.00;99318.56;5057078;28;20040;-66
2022/04/23 02:12:33;;;;;;;22.40;17.38;;;;;;;8.27;100.00;99310.25;5054461;28;20034;-65
2022/04/23 02:14:59;;;;;;;20.25;17.17;;;;;;;8.33;100.00;99320.41;5052552;28;20877;-65
2022/04/23 02:17:34;;;;;;;20.45;17.75;;;;;;;8.07;100.00;99288.72;5034800;28;20063;-65
2022/04/23 02:20:10;;;;;;;23.85;17.85;;;;;;;8.20;100.00;99310.63;5051701;28;20116;-65
2022/04/23 02:22:36;;;;;;;27.25;18.85;;;;;;;8.01;100.00;99288.25;5052017;28;20121;-65
2022/04/23 02:25:04;;;;;;;22.77;18.42;;;;;;;8.04;100.00;99288.88;5032598;28;20845;-65
2022/04/23 02:27:42;;;;;;;27.85;19.23;;;;;;;8.10;100.00;99306.84;5052004;28;20050;-65
2022/04/23 02:30:08;;;;;;;21.77;18.25;;;;;;;8.07;100.00;99301.81;5050516;28;20082;-66
2022/04/23 02:32:33;;;;;;;22.15;18.30;;;;;;;8.13;100.00;99311.06;5050230;28;20024;-65
2022/04/23 02:34:59;;;;;;;22.20;19.48;;;;;;;7.97;100.00;99287.56;5051387;28;20034;-65
2022/04/23 02:37:27;;;;;;;26.40;19.75;;;;;;;8.06;100.00;99299.25;5050347;28;20020;-65
2022/04/23 02:39:52;;;;;;;24.40;19.42;;;;;;;8.07;100.00;99299.19;5052520;28;20028;-65
2022/04/23 02:42:18;;;;;;;20.70;18.67;;;;;;;8.03;100.00;99295.06;5050451;28;20959;-65
2022/04/23 02:44:45;;;;;;;20.90;18.40;;;;;;;8.09;100.00;99310.41;5050693;28;20038;-65
2022/04/23 02:47:11;;;;;;;21.38;18.98;;;;;;;8.03;100.00;99308.13;5050097;28;20024;-65
2022/04/23 02:49:36;;;;;;;28.52;20.50;;;;;;;7.59;100.00;99239.22;5052515;28;20837;-65
2022/04/23 02:52:02;;;;;;;26.65;20.52;;;;;;;8.05;100.00;99311.50;5050068;28;20874;-65
2022/04/23 02:54:27;;;;;;;21.15;18.85;;;;;;;7.91;100.00;99293.13;5052432;28;20039;-67
2022/04/23 02:56:54;;;;;;;24.45;19.92;;;;;;;8.07;100.00;99311.44;5051826;28;20940;-65
2022/04/23 02:59:19;;;;;;;23.83;20.23;;;;;;;7.96;100.00;99292.88;5050195;28;20881;-65
2022/04/23 03:01:45;;;;;;;23.50;21.02;;;;;;;7.96;100.00;99312.03;5051580;28;20037;-65
2022/04/23 03:04:11;;;;;;;22.20;19.52;;;;;;;7.88;100.00;99303.78;5042527;28;20028;-65
2022/04/23 03:06:36;;;;;;;24.63;20.15;;;;;;;7.88;100.00;99303.78;5047331;28;20788;-65
2022/04/23 03:09:03;;;;;;;26.15;20.63;;;;;;;7.71;100.00;99280.34;5052250;28;20028;-65
2022/04/23 03:11:31;;;;;;;24.42;21.38;;;;;;;7.83;100.00;99292.75;5051223;28;20027;-66
2022/04/23 03:14:00;;;;;;;31.65;21.48;;;;;;;7.89;100.00;99308.06;5049899;28;20028;-65
2022/04/23 03:16:29;;;;;;;24.35;20.70;;;;;;;7.76;100.00;99299.25;5049847;28;20113;-65
2022/04/23 03:18:56;;;;;;;32.47;21.77;;;;;;;7.70;100.00;99291.75;5050149;28;20027;-65
2022/04/23 03:21:22;;;;;;;22.60;19.98;;;;;;;7.76;100.00;99304.47;5051069;28;20051;-65
2022/04/23 03:23:47;;;;;;;21.38;19.08;;;;;;;7.71;100.00;99301.25;5051641;28;20316;-65
2022/04/23 03:26:12;;;;;;;26.67;21.42;;;;;;;7.62;100.00;99283.47;5051124;28;20089;-65
2022/04/23 03:28:38;;;;;;;24.13;21.55;;;;;;;7.66;100.00;99300.69;5050905;28;20032;-65
2022/04/23 03:31:03;;;;;;;26.17;21.92;;;;;;;7.73;100.00;99307.25;5051048;28;20798;-65
2022/04/23 03:33:28;;;;;;;26.05;21.60;;;;;;;7.70;100.00;99299.59;5051569;28;20028;-66
2022/04/23 03:35:54;;;;;;;29.08;22.40;;;;;;;7.72;100.00;99313.41;5084152;28;20115;-64
2022/04/23 03:38:19;;;;;;;24.27;21.77;;;;;;;7.71;100.00;99306.47;5074699;28;20023;-65
2022/04/23 03:40:45;;;;;;;24.70;20.55;;;;;;;7.62;100.00;99293.94;5092440;28;20032;-65
2022/04/23 03:43:12;;;;;;;24.23;20.90;;;;;;;7.58;100.00;99290.66;5072737;28;20030;-65
2022/04/23 03:45:38;;;;;;;24.83;21.67;;;;;;;7.62;100.00;99293.94;5049515;28;20024;-66
2022/04/23 03:48:03;;;;;;;25.20;21.60;;;;;;;7.46;100.00;99274.81;5049249;28;20020;-66
2022/04/23 03:50:29;;;;;;;27.85;21.38;;;;;;;7.49;100.00;99283.34;5049284;28;20074;-65
2022/04/23 03:52:56;;;;;;;26.50;21.95;;;;;;;7.34;100.00;99271.09;5031310;28;20039;-64
2022/04/23 03:55:22;;;;;;;34.35;23.17;;;;;;;7.43;100.00;99277.59;5049343;28;20028;-66
2022/04/23 03:57:49;;;;;;;27.85;21.90;;;;;;;7.52;100.00;99290.16;5050356;28;20085;-65
2022/04/23 04:00:17;;;;;;;25.42;22.05;;;;;;;7.25;100.00;99255.94;5048553;28;20032;-65
2022/04/23 04:02:43;;;;;;;25.30;21.10;;;;;;;7.52;100.00;99291.00;5050653;28;20106;-65
2022/04/23 04:05:10;;;;;;;25.73;22.02;;;;;;;7.51;100.00;99283.22;5050401;28;20028;-64
2022/04/23 04:07:35;;;;;;;26.90;22.45;;;;;;;7.52;100.00;99284.94;5048731;28;20407;-65
2022/04/23 04:10:01;;;;;;;28.25;21.25;;;;;;;7.38;100.00;99266.56;5049480;28;20031;-64
2022/04/23 04:12:27;;;;;;;29.25;21.63;;;;;;;7.51;100.00;99289.31;5031181;28;20132;-64
2022/04/23 04:14:52;;;;;;;25.90;21.90;;;;;;;7.52;100.00;99295.38;5052895;28;20052;-64
2022/04/23 04:17:18;;;;;;;28.23;21.25;;;;;;;7.45;100.00;99288.81;5034745;28;20036;-66
2022/04/23 04:19:43;;;;;;;22.85;20.30;;;;;;;7.36;100.00;99273.63;5054971;28;20056;-66
2022/04/23 04:22:09;;;;;;;28.00;21.88;;;;;;;7.42;100.00;99279.38;5054454;28;20028;-66
2022/04/23 04:24:34;;;;;;;27.30;21.88;;;;;;;7.41;100.00;99277.69;5035860;28;20032;-66
2022/04/23 04:27:00;;;;;;;25.20;21.70;;;;;;;7.47;100.00;99298.25;5036355;28;20048;-66
2022/04/23 04:29:26;;;;;;;25.48;20.80;;;;;;;7.30;100.00;99266.16;5052625;28;20032;-65
2022/04/23 04:31:52;;;;;;;23.90;21.27;;;;;;;7.42;100.00;99291.59;5053048;28;20020;-64
2022/04/23 04:34:23;;;;;;;27.15;20.58;;;;;;;7.42;100.00;99281.97;5052206;28;20024;-64
2022/04/23 04:36:50;;;;;;;25.15;21.02;;;;;;;7.34;100.00;99265.03;5051940;28;20149;-64
2022/04/23 04:39:16;;;;;;;28.42;21.85;;;;;;;7.43;100.00;99275.00;5052851;28;20038;-65
2022/04/23 04:41:41;;;;;;;27.20;22.00;;;;;;;7.50;100.00;99292.03;5035338;28;20032;-66
2022/04/23 04:44:08;;;;;;;23.17;19.40;;;;;;;7.51;100.00;99289.31;5035275;28;20097;-65
2022/04/23 04:46:34;;;;;;;27.67;19.80;;;;;;;7.52;100.00;99287.53;5054261;28;20113;-65
2022/04/23 04:49:03;;;;;;;22.50;19.98;;;;;;;7.54;100.00;99285.66;5054064;28;20032;-66
2022/04/23 04:51:29;;;;;;;24.27;21.05;;;;;;;7.43;100.00;99264.53;5054369;28;20021;-64
2022/04/23 04:53:55;;;;;;;24.65;21.85;;;;;;;7.58;100.00;99289.81;5056113;28;20828;-67
2022/04/23 04:56:20;;;;;;;24.42;21.25;;;;;;;7.63;100.00;99293.03;5054960;28;20035;-64
2022/04/23 04:58:47;;;;;;;26.45;20.75;;;;;;;7.62;100.00;99281.72;5034804;28;20055;-64
2022/04/23 05:01:12;;;;;;;22.90;20.33;;;;;;;7.62;100.00;99279.09;5035138;28;20036;-64
2022/04/23 05:03:39;;;;;;;23.67;20.30;;;;;;;7.67;100.00;99278.84;5034353;28;20138;-65
2022/04/23 05:06:06;;;;;;;22.90;18.80;;;;;;;7.65;100.00;99284.16;5017965;28;20827;-65
2022/04/23 05:08:31;;;;;;;28.92;20.65;;;;;;;7.74;100.00;99285.41;5053524;28;20127;-64
2022/04/23 05:10:56;;;;;;;20.83;18.42;;;;;;;7.74;100.00;99280.16;5053068;28;20062;-65
2022/04/23 05:13:22;;;;;;;28.55;19.20;;;;;;;7.80;100.00;99290.31;5053071;28;20801;-64
2022/04/23 05:15:48;;;;;;;24.60;19.55;;;;;;;7.80;100.00;99287.69;5052424;28;20026;-64
2022/04/23 05:18:14;;;;;;;26.80;18.83;;;;;;;7.89;100.00;99297.63;5051895;28;20039;-64
2022/04/23 05:20:40;;;;;;;22.58;18.80;;;;;;;7.51;100.00;99220.50;5051742;28;20060;-65
2022/04/23 05:23:05;;;;;;;23.38;19.00;;;;;;;7.89;100.00;99276.69;5031028;28;20917;-65
2022/04/23 05:25:31;;;;;;;23.60;19.88;;;;;;;7.94;100.00;99272.03;5046137;28;20023;-65
2022/04/23 05:27:58;;;;;;;27.48;18.05;;;;;;;8.07;100.00;99283.50;5044317;28;20021;-65
2022/04/23 05:30:23;;;;;;;23.48;19.08;;;;;;;8.14;100.00;99284.78;5047547;28;20024;-66
2022/04/23 05:32:49;;;;;;;20.52;16.98;;;;;;;8.23;100.00;99281.66;5046778;28;20030;-66
2022/04/23 05:35:14;;;;;;;19.42;16.80;;;;;;;8.27;100.00;99287.56;5025220;28;20031;-65
2022/04/23 05:37:40;;;;;;;19.13;17.10;;;;;;;8.12;100.00;99259.66;5035838;28;20135;-65
2022/04/23 05:40:06;;;;;;;18.08;16.30;;;;;;;8.36;100.00;99284.44;5031814;28;20024;-65
2022/04/23 05:42:31;;;;;;;21.40;18.42;;;;;;;8.38;100.00;99286.97;5030247;28;20036;-65
2022/04/23 05:44:57;;;;;;;22.02;17.67;;;;;;;8.48;100.00;99303.81;5030687;28;20142;-65
2022/04/23 05:47:22;;;;;;;26.15;17.25;;;;;;;8.49;100.00;99295.84;5044562;28;20057;-65
2022/04/23 05:49:48;;;;;;;22.20;17.48;;;;;;;8.48;100.00;99282.88;5074314;28;20035;-65
2022/04/23 05:52:13;;;;;;;21.08;17.80;;;;;;;8.57;100.00;99298.88;5074216;28;20487;-65
2022/04/23 05:54:39;;;;;;;26.83;16.73;;;;;;;8.43;100.00;99258.72;5061847;28;20089;-65
2022/04/23 05:57:04;;;;;;;20.38;16.42;;;;;;;8.70;100.00;99299.81;5030823;28;20079;-64
2022/04/23 05:59:31;;;;;;;20.35;16.52;;;;;;;8.71;100.00;99284.94;5057824;28;20029;-64
2022/04/23 06:01:57;;;;;;;18.92;16.70;;;;;;;8.77;100.00;99291.59;5062784;28;20848;-65
2022/04/23 06:04:26;;;;;;;20.90;16.40;;;;;;;8.81;100.00;99288.69;5030992;28;20060;-64
2022/04/23 06:06:52;;;;;;;18.38;16.27;;;;;;;8.90;100.00;99290.75;5031253;28;20130;-64
2022/04/23 06:09:17;;;;;;;19.42;16.60;;;;;;;8.94;100.00;99294.03;5031259;28;20863;-64
2022/04/23 06:11:42;;;;;;;22.35;15.63;;;;;;;9.02;100.00;99295.22;5035265;28;20054;-64
2022/04/23 06:14:08;;;;;;;20.63;16.67;;;;;;;9.06;100.00;99293.25;5032131;28;20090;-64
2022/04/23 06:16:34;;;;;;;21.80;16.05;;;;;;;9.19;100.00;99302.88;5030726;28;20094;-65
2022/04/23 06:19:00;;;;;;;19.38;15.60;;;;;;;9.08;100.00;99270.44;5031144;28;20210;-65
2022/04/23 06:21:25;;;;;;;21.02;17.15;;;;;;;9.17;100.00;99272.47;5031169;28;20048;-65
2022/04/23 06:23:50;;;;;;;17.27;15.57;;;;;;;8.75;100.00;99184.31;5034731;28;20921;-64
2022/04/23 06:26:16;;;;;;;23.20;16.67;;;;;;;9.50;100.00;99290.47;5049565;28;20024;-65
2022/04/23 06:28:41;;;;;;;23.80;17.27;;;;;;;9.59;100.00;99295.16;5031996;28;20082;-65
2022/04/23 06:31:07;;;;;;;19.13;15.45;;;;;;;9.62;100.00;99293.19;5032214;28;20117;-64
2022/04/23 06:33:32;;;;;;;22.23;16.73;;;;;;;9.68;100.00;99290.16;5049620;28;20040;-65
2022/04/23 06:35:58;;;;;;;20.23;16.65;;;;;;;9.80;100.00;99293.75;5050553;28;20903;-65
2022/04/23 06:38:24;;;;;;;20.88;15.60;;;;;;;9.89;100.00;99292.34;5051353;28;20082;-65
2022/04/23 06:40:49;;;;;;;17.73;14.82;;;;;;;9.91;100.00;99291.28;5049418;28;20910;-65
2022/04/23 06:43:15;;;;;;;18.67;15.05;;;;;;;9.96;100.00;99281.34;5049749;28;20844;-65
2022/04/23 06:45:40;;;;;;;19.85;15.80;;;;;;;10.08;100.00;99283.16;5032412;28;20143;-65
2022/04/23 06:48:06;;;;;;;20.33;16.35;;;;;;;10.10;100.00;99285.69;5011819;28;20032;-65
2022/04/23 06:50:32;;;;;;;17.83;14.48;;;;;;;10.15;100.00;99284.47;5029116;28;20024;-65
2022/04/23 06:53:02;;;;;;;17.75;15.30;;;;;;;10.24;100.00;99270.72;5030507;28;20132;-64
2022/04/23 06:55:27;;;;;;;18.98;16.40;;;;;;;10.03;100.00;99226.66;5030268;28;20894;-65
2022/04/23 06:57:53;;;;;;;20.70;15.25;;;;;;;10.22;100.00;99249.00;5044657;28;20033;-65
2022/04/23 07:00:21;;;;;;;21.02;15.43;;;;;;;10.40;100.00;99272.31;5015337;28;20029;-65
2022/04/23 07:02:46;;;;;;;17.88;15.18;;;;;;;10.48;100.00;99264.75;5040045;28;20036;-65
2022/04/23 07:05:12;;;;;;;16.15;13.88;;;;;;;10.57;100.00;99267.63;5030402;28;20078;-66
2022/04/23 07:07:37;;;;;;;27.20;15.15;;;;;;;10.65;100.00;99261.81;5011816;28;20024;-65
2022/04/23 07:10:03;;;;;;;16.92;14.90;;;;;;;10.69;100.00;99243.13;5038804;28;20995;-66
2022/04/23 07:12:29;;;;;;;16.30;14.20;;;;;;;10.76;100.00;99249.63;5056444;28;20041;-65
2022/04/23 07:14:54;;;;;;;16.42;14.23;;;;;;;10.86;100.00;99259.50;5045166;28;20957;-65
2022/04/23 07:17:26;;;;;;;18.70;15.18;;;;;;;10.94;100.00;99265.91;5036009;28;20078;-65
2022/04/23 07:19:53;;;;;;;19.67;14.88;;;;;;;10.99;100.00;99271.69;5030150;28;20020;-65
2022/04/23 07:22:19;;;;;;;15.15;13.68;;;;;;;11.05;100.00;99273.88;5062740;28;20024;-64
2022/04/23 07:24:45;;;;;;;18.42;13.88;;;;;;;11.09;100.00;99267.47;5033405;28;20040;-66
2022/04/23 07:27:11;;;;;;;16.42;13.15;;;;;;;11.12;100.00;99259.34;5029043;28;20039;-65
2022/04/23 07:29:36;;;;;;;16.27;13.82;;;;;;;11.18;100.00;99261.56;5030256;28;20851;-66
2022/04/23 07:32:02;;;;;;;15.15;13.52;;;;;;;11.25;100.00;99267.22;5036516;28;20137;-65
2022/04/23 07:37:28;;;;;;;15.35;13.75;;;;;;;11.36;100.00;99254.13;5028424;28;20786;-65
2022/04/23 07:39:57;;;;;;;21.05;14.02;;;;;;;11.46;100.00;99260.41;5050250;28;20479;-65
2022/04/23 07:42:22;;;;;;;22.38;14.43;;;;;;;11.47;100.00;99250.75;5049879;28;20139;-66
2022/04/23 07:44:47;;;;;;;17.60;14.23;;;;;;;11.64;100.00;99263.50;5049855;28;20082;-66
2022/04/23 07:47:13;;;;;;;17.08;14.05;;;;;;;11.73;100.00;99265.50;5048862;28;20035;-65
2022/04/23 07:49:38;;;;;;;17.45;13.15;;;;;;;11.85;100.00;99264.63;5048691;28;20142;-65
2022/04/23 07:52:04;;;;;;;14.13;12.68;;;;;;;11.78;100.00;99239.69;5048944;28;20063;-65
2022/04/23 07:54:29;;;;;;;27.50;12.15;;;;;;;11.97;100.00;99255.81;5048597;28;20861;-66
2022/04/23 07:56:55;;;;;;;16.73;13.27;;;;;;;11.69;100.00;99203.50;5048661;28;20067;-65
2022/04/23 07:59:21;;;;;;;12.95;11.18;;;;;;;12.03;100.00;99242.19;5048594;28;20084;-65
2022/04/23 08:01:47;;;;;;;13.73;12.02;;;;;;;12.16;100.00;99261.41;5049238;28;20385;-65
2022/04/23 08:04:12;;;;;;;16.98;11.68;;;;;;;11.78;100.00;99187.06;5048146;28;20067;-65
2022/04/23 08:06:38;;;;;;;14.48;11.45;;;;;;;12.27;100.00;99252.66;5047794;28;20024;-65
2022/04/23 08:09:04;;;;;;;12.13;10.52;;;;;;;12.40;100.00;99252.59;5046641;28;20109;-65
2022/04/23 08:11:29;;;;;;;14.02;11.07;;;;;;;12.44;100.00;99235.56;5030338;28;20819;-66
2022/04/23 08:13:56;;;;;;;15.07;12.13;;;;;;;12.60;100.00;99259.81;5048909;28;20070;-65
2022/04/23 08:16:21;;;;;;;13.18;10.68;;;;;;;12.55;100.00;99238.25;5047999;28;20455;-67
2022/04/23 08:18:47;;;;;;;16.35;11.52;;;;;;;12.67;100.00;99255.75;5030092;28;20020;-66
2022/04/23 08:21:12;;;;;;;13.25;10.52;;;;;;;12.74;100.00;99257.78;5048151;28;20033;-65
2022/04/23 08:23:37;;;;;;;11.65;9.30;;;;;;;12.34;100.00;99180.13;5042369;28;20056;-65
2022/04/23 08:26:05;;;;;;;15.40;11.43;;;;;;;12.93;100.00;99267.75;5029671;28;20040;-66
2022/04/23 08:31:15;;;;;;;12.77;10.07;;;;;;;13.01;100.00;99265.34;5029259;28;20871;-65
2022/04/23 08:33:58;;;;;;;14.27;11.43;;;;;;;12.91;100.00;99232.75;5029409;28;20135;-65
2022/04/23 08:36:36;;;;;;;13.95;10.32;;;;;;;13.27;100.00;99277.38;5028966;28;20061;-65
2022/04/23 08:39:06;;;;;;;13.90;10.50;;;;;;;13.40;100.00;99261.41;5010679;28;20083;-66
2022/04/23 08:41:34;;;;;;;11.38;9.52;;;;;;;13.56;100.00;99275.03;5029823;28;20081;-66
2022/04/23 08:44:05;;;;;;;12.05;9.82;;;;;;;13.69;100.00;99277.50;5011232;28;20029;-65
2022/04/23 08:46:38;;;;;;;10.70;9.50;;;;;;;13.77;100.00;99275.09;5031078;28;20020;-66
2022/04/23 08:49:11;;;;;;;12.63;9.85;;;;;;;13.80;100.00;99286.25;5032342;28;20024;-66
2022/04/23 08:51:38;;;;;;;12.00;9.70;;;;;;;13.85;100.00;99277.13;5039921;28;20035;-65
2022/04/23 08:54:09;;;;;;;12.40;8.90;;;;;;;13.85;100.00;99262.13;5031299;28;20021;-65
2022/04/23 08:56:36;;;;;;;14.15;9.18;;;;;;;14.04;100.00;99267.56;5032237;28;20078;-66
2022/04/23 08:59:03;;;;;;;11.68;8.48;;;;;;;13.99;100.00;99255.72;5044034;28;20032;-66
2022/04/23 09:01:31;;;;;;;11.88;8.88;;;;;;;14.00;100.00;99281.13;5031681;28;20203;-65
2022/04/23 09:03:57;;;;;;;16.65;9.65;;;;;;;13.90;100.00;99265.22;5039152;28;20031;-66
2022/04/23 09:06:23;;;;;;;12.25;8.93;;;;;;;13.95;100.00;99278.91;5039679;28;20025;-66
2022/04/23 09:09:07;;;;;;;9.35;7.95;;;;;;;14.01;100.00;99245.84;5025247;28;20036;-66
2022/04/23 09:11:36;;;;;;;;;;;;;;;14.24;100.00;99266.75;5047663;28;20389;-65
2022/04/23 09:14:03;;;;;;;15.07;9.32;;;;;;;14.12;100.00;99233.44;5049003;28;20288;-65
2022/04/23 09:24:43;;;;;;;10.68;7.40;;;;;;;14.78;100.00;99257.81;5053579;28;20148;-65
2022/04/23 09:27:09;;;;;;;10.57;7.15;;;;;;;14.91;100.00;99245.19;5053226;28;20073;-65
2022/04/23 09:29:34;;;;;;;12.38;8.07;;;;;;;15.08;100.00;99249.84;5053049;28;20051;-65
2022/04/23 09:32:17;;;;;;;11.45;8.10;;;;;;;15.07;100.00;99224.38;5052437;28;20131;-65
2022/04/23 09:34:42;;;;;;;12.55;7.65;;;;;;;15.23;100.00;99248.53;5051287;28;20148;-66
2022/04/23 09:37:08;;;;;;;8.32;7.18;;;;;;;15.14;100.00;99269.69;5051341;28;20844;-64
2022/04/23 09:39:35;;;;;;;11.10;7.22;;;;;;;14.94;100.00;99262.63;5051297;28;20481;-65
2022/04/23 09:42:11;;;;;;;9.35;6.78;;;;;;;14.85;100.00;99264.25;5066657;28;20051;-66
2022/04/23 09:44:36;;;;;;;9.32;7.00;;;;;;;14.66;100.00;99253.56;5051818;28;20036;-65
2022/04/23 09:47:02;;;;;;;9.40;7.43;;;;;;;14.64;100.00;99261.63;5047733;28;20031;-64
2022/04/23 09:49:27;;;;;;;10.15;7.50;;;;;;;14.60;100.00;99254.09;5050868;28;20028;-65
2022/04/23 09:52:07;;;;;;;9.98;7.18;;;;;;;14.71;100.00;99252.19;5051518;28;20027;-65
2022/04/23 09:54:34;;;;;;;7.72;6.47;;;;;;;14.98;100.00;99258.72;5038127;28;20033;-65
2022/04/23 09:57:00;;;;;;;8.98;6.82;;;;;;;15.04;100.00;99234.41;5040840;28;20035;-65
2022/04/23 09:59:29;;;;;;;12.45;7.65;;;;;;;15.53;100.00;99257.41;5045378;28;20991;-64
2022/04/23 10:01:55;;;;;;;11.82;7.57;;;;;;;15.81;100.00;99249.53;5044511;28;20028;-65
2022/04/23 10:04:23;;;;;;;10.52;6.53;;;;;;;16.08;100.00;99259.44;5046341;28;20035;-64
2022/04/23 10:06:52;;;;;;;8.30;6.00;;;;;;;16.05;100.00;99257.06;5047309;28;20020;-65
2022/04/23 10:09:19;;;;;;;8.15;6.78;;;;;;;15.88;100.00;99260.41;5034199;28;20028;-65
2022/04/23 10:11:49;;;;;;;9.48;7.10;;;;;;;15.59;100.00;99236.53;5049214;28;20138;-65
2022/04/23 10:14:19;;;;;;;10.93;7.35;;;;;;;15.29;100.00;99191.56;5058134;28;20146;-65
2022/04/23 10:16:47;;;;;;;8.55;6.25;;;;;;;15.71;100.00;99247.84;5018221;28;20024;-65
2022/04/23 10:19:13;;;;;;;8.38;6.97;;;;;;;15.80;100.00;99237.25;5014885;28;20093;-65
2022/04/23 10:21:41;;;;;;;9.65;6.85;;;;;;;15.93;100.00;99246.72;5015450;28;20032;-65
2022/04/23 10:24:28;;;;;;;9.52;6.22;;;;;;;15.97;100.00;99245.47;5032518;28;20024;-65
2022/04/23 10:26:59;;;;;;;12.20;6.68;;;;;;;16.07;100.00;99248.97;5013086;28;20039;-66
2022/04/23 10:29:27;;;;;;;11.43;6.75;;;;;;;16.07;100.00;99231.25;5012692;28;20152;-65
2022/04/23 10:32:11;;;;;;;10.25;6.30;;;;;;;16.17;100.00;99239.19;5046101;28;20024;-65
2022/04/23 10:34:37;;;;;;;9.63;6.40;;;;;;;16.56;100.00;99240.03;5030315;28;20024;-65
2022/04/23 10:37:18;;;;;;;11.45;6.60;;;;;;;17.07;100.00;99235.06;5030209;28;20793;-64
2022/04/23 10:39:53;;;;;;;12.07;6.75;;;;;;;17.41;100.00;99234.47;5030276;28;20032;-65
2022/04/23 10:42:23;;;;;;;8.98;6.93;;;;;;;17.24;100.00;99173.22;5031616;28;20436;-65
2022/04/23 10:44:50;;;;;;;13.50;6.70;;;;;;;17.71;100.00;99242.19;5031763;28;20032;-65
2022/04/23 10:47:33;;;;;;;8.65;6.25;;;;;;;17.42;100.00;99230.84;5030186;28;20044;-65
2022/04/23 10:50:15;;;;;;;16.15;6.15;;;;;;;17.60;100.00;99231.75;5031713;28;20025;-65
2022/04/23 10:52:41;;;;;;;8.13;6.35;;;;;;;17.76;100.00;99227.44;5030216;28;20479;-65
2022/04/23 10:55:08;;;;;;;7.60;5.53;;;;;;;18.16;98.74;99218.16;5030710;28;20863;-65
2022/04/23 10:57:34;;;;;;;6.38;5.25;;;;;;;18.28;95.55;99220.41;5014394;28;20028;-65
2022/04/23 11:00:10;;;;;;;14.73;6.43;;;;;;;18.21;94.63;99222.03;5031568;28;20063;-66
2022/04/23 11:02:37;;;;;;;5.93;5.03;;;;;;;18.29;93.25;99219.44;5035767;28;20024;-65
2022/04/23 11:13:53;;;;;;;8.55;5.30;;;;;;;19.08;86.80;99227.28;5030633;28;20040;-65
2022/04/23 11:16:20;;;;;;;10.05;5.75;;;;;;;19.03;85.34;99213.59;5011798;28;20944;-65
2022/04/23 11:18:50;;;;;;;10.05;5.43;;;;;;;19.12;84.71;99222.47;5029679;28;20031;-65
2022/04/23 11:21:26;;;;;;;137.73;34.67;;;;;;;19.43;84.73;99209.47;5029916;28;20024;-65
2022/04/23 11:23:54;;;;;;;76.50;23.23;;;;;;;19.74;84.83;99207.84;5028362;28;20028;-65
2022/04/23 11:26:26;;;;;;;175.20;32.47;;;;;;;19.92;81.62;99205.03;5012145;28;20929;-65
2022/04/23 11:28:59;;;;;;;24.90;11.60;;;;;;;20.10;82.33;99208.38;5030118;28;20024;-65
2022/04/23 11:31:26;;;;;;;30.60;7.03;;;;;;;20.32;78.77;99208.56;5029493;28;20029;-65
2022/04/23 11:33:53;;;;;;;8.88;5.35;;;;;;;20.24;77.55;99189.84;5030983;28;20024;-65
2022/04/23 11:36:24;;;;;;;7.45;5.20;;;;;;;20.74;79.12;99192.34;5037942;28;20478;-65
2022/04/23 11:38:49;;;;;;;7.57;5.38;;;;;;;21.28;76.06;99206.69;5021543;28;20965;-65